Rockton, Pennsylvania
Current Conditions -  °F | °C
As of 1:54 PM on Sunday 23 Nov 2014 (Local Time) from KFIG Reporting Station
Clear Clear  
Wind Chill: 58°   Ceiling: Unl
Heat Index: 58°   Visibility: 10mi
Dew Point: 36°   Wind: 6mph
Humidity: 44%   Direction: NA
Pressure: 30.01"   Gusts: NA
Location:  41.08°N, 78.65°W
Report Text: KFIG 231854Z AUTO VRB05KT 10SM CLR 14/02 A3001 RMK AO2 SLP169 T01440022
Loading
Personal Weather Stations






























Interactive Weather Map New forecast layout! Learn more

10-Day Weather Forecast

Advertisements
Track Severe Weather on mobile